Latest Weather Observations for Goulburn Airport

IDN60901

Issued at 5:02 am EST Friday 20 May 2022 (issued every 10 minutes, with the page automatically refreshed every 10 minutes)

About weather observations | Map of Canberra area stations | Latest observations for Canberra area | Other Formats
Station Details ID: 070330 Name: GOULBURN AIRPORT AWS Lat: -34.81 Lon: 149.73 Height: 640.0 m
Data from the previous 72 hours. | See also: Recent months at Goulburn Airport
Date/Time
EST
Temp
°C
App
Temp
°C
Dew
Point
°C
Rel
Hum
%
Delta-T
°C
Wind Press
QNH
hPa
Press
MSL
hPa
Rain since
9am
mm
Dir  Spd
km/h
Gust
km/h
Spd
kts
Gust
kts
20/05:00am -2.8 -5.2 -3.1 98 0.0 CALM 0 0 0 0 1031.1 1031.5 0.0
20/04:55am -3.2 -5.6 -3.5 98 0.0 CALM 0 0 0 0 1031.1 1031.5 0.0
20/04:43am -2.9 -5.3 -3.2 98 0.0 CALM 0 0 0 0 1031.0 1031.4 0.0
20/04:30am -3.0 -5.4 -3.3 98 0.0 CALM 0 0 0 0 1030.9 1031.2 0.0
20/04:11am -2.4 -4.7 -2.7 98 0.0 CALM 0 0 0 0 1030.8 1031.1 0.0
20/04:04am -2.6 -5.0 -2.9 98 0.0 CALM 0 0 0 0 1030.8 1031.1 0.0
20/04:00am -2.4 -4.7 -2.7 98 0.0 CALM 0 0 0 0 1030.7 1031.0 0.0
20/03:39am -2.9 -5.3 -3.2 98 0.0 CALM 0 0 0 0 1030.5 1030.8 0.0
20/03:30am -2.5 -4.9 -2.8 98 0.0 CALM 0 0 0 0 1030.4 1030.7 0.0
20/03:23am -2.7 -5.1 -3.0 98 0.0 CALM 0 0 0 0 1030.4 1030.7 0.0
20/03:14am -2.8 -5.2 -3.1 98 0.0 CALM 0 0 0 0 1030.4 1030.7 0.0
20/03:00am -2.4 -4.7 -2.7 98 0.0 CALM 0 0 0 0 1030.3 1030.6 0.0
20/02:55am -2.4 -4.7 -2.7 98 0.0 CALM 0 0 0 0 1030.3 1030.6 0.0
20/02:30am -2.3 -4.6 -2.6 98 0.0 CALM 0 0 0 0 1030.4 1030.7 0.0
20/02:00am -2.4 -4.7 -2.7 98 0.0 CALM 0 0 0 0 1030.4 1030.7 0.0
20/01:30am -2.0 -4.3 -2.3 98 0.0 CALM 0 0 0 0 1030.4 1030.7 0.0
20/01:00am -1.6 -4.2 -1.9 98 0.0 ESE 2 7 1 4 1030.5 1030.8 0.0
20/12:30am -1.1 -3.3 -1.4 98 0.1 CALM 0 9 0 5 1030.5 1030.8 0.0
20/12:00am -1.3 -4.6 -1.6 98 0.0 ESE 6 7 3 4 1030.5 1030.8 0.0
 
Date/Time
EST
Temp
°C
App
Temp
°C
Dew
Point
°C
Rel
Hum
%
Delta-T
°C
Wind Press
QNH
hPa
Press
MSL
hPa
Rain since
9am
mm
Dir  Spd
km/h
Gust
km/h
Spd
kts
Gust
kts
19/11:55pm -1.3 -4.6 -1.6 98 0.0 ESE 6 7 3 4 1030.5 1030.8 0.0
19/11:36pm -1.4 -3.6 -1.7 98 0.0 CALM 0 0 0 0 1030.7 1031.0 0.0
19/11:30pm -1.2 -3.4 -1.5 98 0.1 CALM 0 0 0 0 1030.7 1031.0 0.0
19/11:00pm -0.6 -2.7 -0.9 98 0.1 CALM 0 0 0 0 1030.6 1030.9 0.0
19/10:30pm -0.6 -3.1 -0.9 98 0.1 ESE 2 7 1 4 1030.6 1030.9 0.0
19/10:00pm -0.4 -3.6 -0.8 97 0.1 ESE 6 7 3 4 1030.5 1030.8 0.0
19/09:40pm -0.2 -2.3 -0.6 97 0.1 CALM 0 0 0 0 1030.3 1030.6 0.0
19/09:30pm -0.4 -2.5 -0.8 97 0.1 CALM 0 0 0 0 1030.1 1030.4 0.0
19/09:26pm -0.4 -2.5 -0.8 97 0.1 CALM 0 0 0 0 1030.1 1030.4 0.0
19/09:00pm 0.9 -1.0 0.6 98 0.1 CALM 0 0 0 0 1029.7 1030.1 0.0
19/08:30pm 0.5 -2.8 -0.1 96 0.2 SSW 7 9 4 5 1029.5 1029.8 0.0
19/08:00pm 0.6 -2.6 -0.3 94 0.3 N 6 7 3 4 1029.2 1029.5 0.0
19/07:34pm 1.0 -1.0 0.0 93 0.4 CALM 0 0 0 0 1029.0 1029.3 0.0
19/07:30pm 1.8 0.0 0.9 94 0.4 CALM 0 0 0 0 1029.0 1029.3 0.0
19/07:23pm 2.2 0.4 1.5 95 0.3 CALM 0 0 0 0 1029.0 1029.3 0.0
19/07:00pm 1.6 -0.3 0.3 91 0.5 CALM 0 0 0 0 1028.6 1028.9 0.0
19/06:30pm 2.1 0.1 0.0 86 0.8 CALM 0 0 0 0 1028.4 1028.7 0.0
19/06:00pm 3.8 1.2 1.0 82 1.1 N 4 7 2 4 1027.7 1028.0 0.0
19/05:30pm 6.2 4.4 3.2 81 1.3 ESE 2 6 1 3 1027.3 1027.6 0.0
19/05:29pm 6.3 4.5 3.5 82 1.2 ESE 2 7 1 4 1027.3 1027.6 0.0
19/05:00pm 6.2 2.7 1.1 70 2.1 SW 9 13 5 7 1026.8 1027.0 0.0
19/04:36pm 9.4 5.6 2.0 60 3.2 SW 11 11 6 6 1026.4 1026.7 0.0
19/04:33pm 9.7 5.9 1.8 58 3.4 SW 11 13 6 7 1026.4 1026.7 0.0
19/04:30pm 10.0 6.2 1.9 57 3.5 SW 11 13 6 7 1026.4 1026.7 0.0
19/04:13pm 11.8 9.1 0.6 46 4.8 WNW 4 13 2 7 1026.0 1026.3 0.0
19/04:00pm 13.3 10.3 0.7 42 5.5 NW 6 7 3 4 1025.8 1026.1 0.0
19/03:54pm 13.3 10.3 0.7 42 5.5 WSW 6 9 3 5 1025.7 1026.0 0.0
19/03:41pm 13.5 10.5 0.5 41 5.7 WSW 6 9 3 5 1025.7 1026.0 0.0
19/03:40pm 13.6 10.9 0.3 40 5.8 WSW 4 9 2 5 1025.7 1026.0 0.0
19/03:30pm 13.6 10.9 0.3 40 5.8 S 4 9 2 5 1025.7 1026.0 0.0
19/03:05pm 13.6 10.4 0.6 41 5.7 SSW 7 13 4 7 1025.4 1025.6 0.0
19/03:00pm 13.3 10.6 0.0 40 5.7 SE 4 11 2 6 1025.3 1025.5 0.0
19/02:39pm 13.5 10.3 -0.2 39 5.9 NNW 6 9 3 5 1025.3 1025.5 0.0
19/02:30pm 13.6 10.3 0.3 40 5.8 S 7 13 4 7 1025.2 1025.4 0.0
19/02:21pm 13.3 10.4 1.3 44 5.3 SSW 6 11 3 6 1025.3 1025.5 0.0
19/02:00pm 13.4 10.3 1.1 43 5.4 WNW 7 11 4 6 1025.2 1025.4 0.0
19/01:30pm 13.0 10.1 1.7 46 5.0 NW 6 9 3 5 1024.9 1025.1 0.0
19/01:21pm 13.1 10.7 2.1 47 5.0 SW 4 9 2 5 1025.1 1025.3 0.0
19/01:02pm 12.4 9.2 0.8 45 5.1 SSW 7 11 4 6 1025.1 1025.3 0.0
19/01:00pm 12.7 9.7 1.1 45 5.1 SSE 6 11 3 6 1025.1 1025.3 0.0
19/12:30pm 11.8 8.5 0.3 45 4.9 SSE 7 15 4 8 1025.4 1025.6 0.0
19/12:00pm 11.0 7.4 0.4 48 4.5 S 9 11 5 6 1025.7 1026.0 0.0
19/11:30am 11.1 7.9 3.2 58 3.6 WNW 9 13 5 7 1026.2 1026.5 0.0
19/11:00am 10.0 7.1 4.4 68 2.6 W 9 15 5 8 1026.4 1026.7 0.0
19/10:30am 8.3 5.0 4.3 76 1.8 WNW 11 15 6 8 1026.3 1026.6 0.0
19/10:09am 7.6 4.4 4.9 83 1.2 WNW 11 15 6 8 1026.3 1026.6 0.0
19/10:00am 7.1 3.8 4.6 84 1.1 NW 11 15 6 8 1026.4 1026.7 0.0
19/09:30am 5.9 2.7 5.3 96 0.3 N 11 13 6 7 1026.7 1026.9 0.0
19/09:00am 4.8 0.8 4.7 99 0.0 N 15 20 8 11 1026.6 1026.8 0.0
19/08:30am 2.6 -0.1 2.5 99 0.0 N 6 9 3 5 1026.4 1026.7 0.0
19/08:01am 0.4 -3.2 0.3 99 0.0 N 9 11 5 6 1025.9 1026.2 0.0
19/08:00am 0.4 -3.2 0.3 99 0.0 N 9 11 5 6 1025.9 1026.2 0.0
19/07:51am 0.1 -3.6 0.0 99 0.0 N 9 11 5 6 1025.8 1026.1 0.0
19/07:30am -0.7 -2.8 -0.8 99 0.0 CALM 0 9 0 5 1025.5 1025.7 0.0
19/07:25am -0.9 -3.0 -1.0 99 0.0 CALM 0 0 0 0 1025.4 1025.6 0.0
19/07:24am -1.0 -3.1 -1.1 99 0.0 CALM 0 0 0 0 1025.4 1025.6 0.0
19/07:00am -2.0 -4.3 -2.3 98 0.0 CALM 0 0 0 0 1025.1 1025.3 0.0
19/06:30am -1.3 -4.2 -1.4 99 0.0 N 4 6 2 3 1024.7 1025.0 0.0
19/06:29am -1.4 -4.4 -1.5 99 0.0 N 4 6 2 3 1024.6 1024.9 0.0
19/06:00am -0.9 -4.2 -1.0 99 0.0 N 6 7 3 4 1024.5 1024.8 0.0
19/05:30am -1.2 -4.7 -1.5 98 0.1 NNE 7 9 4 5 1024.2 1024.4 0.0
19/05:00am -1.9 -5.3 -2.3 97 0.1 SSE 6 7 3 4 1024.0 1024.2 0.0
19/04:30am -1.6 -5.0 -2.0 97 0.1 NNW 6 6 3 3 1023.8 1024.0 0.0
19/04:00am -1.5 -3.8 -2.1 96 0.1 CALM 0 0 0 0 1023.8 1024.0 0.0
19/03:30am -0.3 -3.7 -0.7 97 0.1 N 7 9 4 5 1023.8 1024.0 0.0
19/03:00am 0.0 -3.8 -0.6 96 0.2 N 9 9 5 5 1023.4 1023.6 0.0
19/02:30am 0.0 -3.3 -1.0 93 0.4 N 6 6 3 3 1023.4 1023.6 0.0
19/02:00am 1.9 -1.1 0.6 91 0.5 N 6 11 3 6 1023.5 1023.7 0.0
19/01:30am 1.8 -2.1 0.9 94 0.4 N 11 20 6 11 1023.3 1023.5 0.0
19/01:00am 1.6 -1.1 0.3 91 0.5 E 4 7 2 4 1023.5 1023.7 0.0
19/12:30am 3.3 -1.3 1.8 90 0.6 N 15 20 8 11 1023.0 1023.3 0.0
19/12:00am 3.7 -2.1 2.2 90 0.6 N 22 26 12 14 1022.9 1023.1 0.0
 
Date/Time
EST
Temp
°C
App
Temp
°C
Dew
Point
°C
Rel
Hum
%
Delta-T
°C
Wind Press
QNH
hPa
Press
MSL
hPa
Rain since
9am
mm
Dir  Spd
km/h
Gust
km/h
Spd
kts
Gust
kts
18/11:30pm 3.2 -0.6 1.9 91 0.5 N 11 15 6 8 1022.9 1023.1 0.0
18/11:00pm 2.7 -0.2 1.4 91 0.5 E 6 9 3 5 1023.1 1023.4 0.0
18/10:30pm 3.4 0.0 1.8 89 0.7 N 9 13 5 7 1022.7 1022.9 0.0
18/10:00pm 5.0 1.4 2.7 85 1.0 N 11 15 6 8 1022.9 1023.1 0.0
18/09:30pm 5.3 0.1 2.7 83 1.1 N 19 24 10 13 1022.8 1023.0 0.0
18/09:00pm 5.7 0.0 3.0 83 1.2 N 22 28 12 15 1022.6 1022.8 0.0
18/08:30pm 5.0 -0.2 3.5 90 0.6 WNW 20 24 11 13 1022.6 1022.8 0.0
18/08:00pm 4.9 0.5 2.9 87 0.8 WNW 15 20 8 11 1022.6 1022.8 0.0
18/07:30pm 4.9 -0.2 2.8 86 0.9 WNW 19 24 10 13 1022.7 1022.9 0.0
18/07:00pm 5.6 2.6 2.3 79 1.4 WSW 7 15 4 8 1022.4 1022.6 0.0
18/06:30pm 6.8 2.9 3.2 78 1.6 WSW 13 19 7 10 1021.9 1022.1 0.0
18/06:00pm 6.9 1.9 3.5 79 1.5 WNW 19 30 10 16 1020.9 1021.1 0.0
18/05:30pm 7.5 2.2 3.2 74 1.9 W 20 30 11 16 1020.5 1020.7 0.0
18/05:00pm 8.6 1.9 3.8 72 2.2 W 28 44 15 24 1020.3 1020.4 0.0
18/04:49pm 9.1 2.5 4.3 72 2.2 W 28 46 15 25 1020.2 1020.3 0.0
18/04:30pm 10.2 2.8 4.1 66 2.8 W 32 43 17 23 1019.7 1019.9 0.0
18/04:00pm 10.8 2.8 3.8 62 3.2 W 35 54 19 29 1019.3 1019.5 0.0
18/03:54pm 10.8 3.1 3.6 61 3.3 W 33 52 18 28 1019.2 1019.4 0.0
18/03:30pm 10.2 2.3 4.1 66 2.8 W 35 48 19 26 1018.9 1019.0 0.0
18/03:00pm 11.2 2.1 4.0 61 3.3 W 41 59 22 32 1018.8 1018.9 0.0
18/02:30pm 13.0 5.3 5.2 59 3.8 W 35 56 19 30 1018.5 1018.6 0.0
18/02:15pm 12.3 3.6 4.3 58 3.8 W 39 59 21 32 1018.6 1018.7 0.0
18/02:00pm 11.8 3.1 4.3 60 3.5 W 39 56 21 30 1018.6 1018.7 0.0
18/01:37pm 13.4 5.7 5.3 58 3.9 W 35 54 19 29 1018.7 1018.8 0.0
18/01:30pm 13.6 5.4 5.0 56 4.1 W 37 54 20 29 1018.7 1018.8 0.0
18/01:17pm 13.7 5.8 4.6 54 4.4 W 35 57 19 31 1018.5 1018.6 0.0
18/01:00pm 12.1 3.9 4.8 61 3.5 WNW 37 54 20 29 1018.7 1018.8 0.0
18/12:53pm 12.0 3.8 4.5 60 3.5 WNW 37 56 20 30 1018.6 1018.7 0.0
18/12:30pm 11.7 2.6 4.2 60 3.5 W 41 56 22 30 1018.9 1019.0 0.0
18/12:11pm 12.6 3.8 3.8 55 4.1 W 39 59 21 32 1019.1 1019.3 0.0
18/12:00pm 12.3 3.7 4.8 60 3.6 W 39 56 21 30 1019.3 1019.5 0.0
18/11:30am 11.3 3.0 4.1 61 3.3 W 37 61 20 33 1019.4 1019.6 0.0
18/11:00am 12.0 3.9 5.2 63 3.2 W 37 57 20 31 1019.9 1020.0 0.0
18/10:30am 10.9 3.8 5.4 69 2.6 W 32 54 17 29 1020.0 1020.1 0.0
18/10:10am 10.7 2.8 4.2 64 3.0 WNW 35 54 19 29 1020.0 1020.1 0.0
18/10:00am 11.4 2.8 4.8 64 3.1 W 39 50 21 27 1020.1 1020.2 0.0
18/09:30am 10.7 4.7 5.3 69 2.6 W 26 37 14 20 1020.2 1020.3 0.0
18/09:00am 10.2 3.2 3.9 65 2.9 WNW 30 43 16 23 1020.1 1020.2 0.0
18/08:30am 9.8 3.9 3.8 66 2.7 NW 24 37 13 20 1020.1 1020.2 0.0
18/08:00am 8.7 3.7 3.5 70 2.3 NNW 19 32 10 17 1019.6 1019.8 0.0
18/07:30am 7.4 2.7 3.1 74 1.9 N 17 22 9 12 1019.5 1019.7 0.0
18/07:00am 6.7 2.7 3.1 78 1.6 N 13 20 7 11 1019.4 1019.6 0.0
18/06:30am 5.7 1.6 2.4 79 1.4 WNW 13 22 7 12 1019.2 1019.4 0.0
18/06:00am 5.7 2.8 2.4 79 1.4 W 7 13 4 7 1019.3 1019.5 0.0
18/05:30am 5.7 3.8 2.9 82 1.2 WSW 2 6 1 3 1019.2 1019.4 0.0
18/05:00am 5.9 3.1 2.9 81 1.3 W 7 13 4 7 1019.1 1019.3 0.0
18/04:30am 5.5 2.6 2.8 83 1.2 WNW 7 11 4 6 1019.0 1019.2 0.0
18/04:00am 5.4 2.6 3.3 86 0.9 W 7 11 4 6 1018.9 1019.0 0.0
18/03:30am 6.8 1.6 3.8 81 1.3 WNW 20 28 11 15 1018.9 1019.0 0.0
18/03:00am 6.9 1.4 4.0 82 1.3 W 22 30 12 16 1018.8 1018.9 0.0
18/02:30am 6.8 0.5 3.8 81 1.3 WNW 26 35 14 19 1018.9 1019.0 0.0
18/02:00am 6.8 0.8 3.4 79 1.5 WNW 24 32 13 17 1019.1 1019.3 0.0
18/01:30am 7.5 1.6 4.1 79 1.5 WNW 24 37 13 20 1019.2 1019.4 0.0
18/01:00am 7.2 1.3 3.8 79 1.5 WNW 24 33 13 18 1019.4 1019.6 0.0
18/12:30am 6.7 0.4 3.7 81 1.3 WNW 26 35 14 19 1019.4 1019.6 0.0
18/12:00am 7.0 0.0 4.1 82 1.3 WNW 30 39 16 21 1019.6 1019.8 0.0
 
Date/Time
EST
Temp
°C
App
Temp
°C
Dew
Point
°C
Rel
Hum
%
Delta-T
°C
Wind Press
QNH
hPa
Press
MSL
hPa
Rain since
9am
mm
Dir  Spd
km/h
Gust
km/h
Spd
kts
Gust
kts
17/11:30pm 6.8 0.2 4.3 84 1.1 WNW 28 35 15 19 1019.5 1019.7 0.0
17/11:00pm 6.5 -0.1 4.0 84 1.1 WNW 28 35 15 19 1019.6 1019.8 0.0
17/10:30pm 6.5 -0.1 4.2 85 1.0 WNW 28 37 15 20 1019.9 1020.0 0.0
17/10:00pm 6.3 0.1 4.1 86 1.0 WNW 26 33 14 18 1020.1 1020.2 0.0
17/09:30pm 6.1 -0.2 3.8 85 1.0 NW 26 33 14 18 1020.2 1020.3 0.0
17/09:00pm 6.0 0.8 3.7 85 1.0 WNW 20 26 11 14 1020.1 1020.2 0.0
17/08:30pm 6.2 1.2 3.7 84 1.1 WNW 19 26 10 14 1020.0 1020.1 0.0
17/08:00pm 6.4 2.2 3.7 83 1.2 W 15 20 8 11 1020.1 1020.2 0.0
17/07:30pm 6.2 2.7 3.4 82 1.2 WNW 11 17 6 9 1020.0 1020.1 0.0
17/07:00pm 6.7 3.2 3.3 79 1.5 WNW 11 19 6 10 1019.6 1019.8 0.0
17/06:30pm 7.2 2.9 3.4 77 1.7 WNW 15 24 8 13 1019.3 1019.5 0.0
17/06:00pm 7.1 3.5 3.0 75 1.8 WNW 11 15 6 8 1019.3 1019.5 0.0
17/05:30pm 8.2 3.4 2.7 68 2.4 WNW 17 22 9 12 1019.0 1019.2 0.0
17/05:00pm 8.9 4.8 2.5 64 2.8 WNW 13 20 7 11 1018.9 1019.0 0.0
17/04:30pm 10.4 4.7 2.7 59 3.4 WNW 22 32 12 17 1018.9 1019.0 0.0
17/04:00pm 11.5 5.9 3.5 58 3.7 WNW 22 35 12 19 1018.8 1018.9 0.0
17/03:30pm 11.8 5.4 3.1 55 4.0 WNW 26 39 14 21 1018.7 1018.8 0.0
17/03:00pm 12.7 6.0 3.4 53 4.3 WNW 28 37 15 20 1018.6 1018.7 0.0
17/02:30pm 13.0 5.5 3.4 52 4.5 WNW 32 44 17 24 1018.6 1018.7 0.0
17/02:00pm 13.0 6.3 3.7 53 4.3 W 28 43 15 23 1018.7 1018.8 0.0
17/01:30pm 12.8 4.8 3.7 54 4.2 WNW 35 44 19 24 1018.9 1019.0 0.0
17/01:00pm 11.3 3.6 2.3 54 4.0 WNW 32 41 17 22 1019.1 1019.3 0.0
17/12:30pm 13.0 6.0 3.9 54 4.3 WNW 30 43 16 23 1019.3 1019.5 0.0
17/12:00pm 12.8 5.8 4.0 55 4.1 WNW 30 41 16 22 1019.7 1019.9 0.0
17/11:30am 12.6 6.6 5.1 60 3.6 WNW 26 39 14 21 1020.1 1020.2 0.0
17/11:00am 12.4 6.9 6.0 65 3.1 WNW 24 33 13 18 1020.5 1020.7 0.0
17/10:30am 11.7 6.8 5.3 65 3.1 W 20 37 11 20 1020.6 1020.8 0.0
17/10:00am 11.2 7.0 5.9 70 2.5 WNW 17 24 9 13 1020.7 1020.9 0.0
17/09:30am 10.5 6.8 6.3 75 2.0 WNW 15 26 8 14 1020.7 1020.9 0.0
17/09:00am 10.0 6.8 6.7 80 1.6 WNW 13 22 7 12 1020.4 1020.6 0.0
17/08:30am 8.6 4.0 6.4 86 1.1 NW 20 32 11 17 1020.1 1020.2 0.0
17/08:00am 7.7 5.1 6.3 91 0.7 NNW 9 17 5 9 1019.9 1020.0 0.0
17/07:30am 6.1 2.7 5.7 97 0.2 NNW 13 20 7 11 1019.5 1019.7 0.0
17/07:00am 5.6 2.4 5.0 96 0.3 NNW 11 19 6 10 1019.1 1019.3 0.0
17/06:30am 6.5 1.0 5.9 96 0.3 NW 24 32 13 17 1018.7 1018.8 0.0
17/06:00am 6.4 1.8 6.3 99 0.0 NW 20 26 11 14 1018.4 1018.5 0.0
17/05:30am 6.0 2.2 5.9 99 0.0 WNW 15 19 8 10 1018.1 1018.3 0.0

Latest Capital City Observations: Canberra | Sydney | Melbourne | Brisbane | Adelaide | Perth | Hobart | Darwin

Other formats

Comma delimited format used in spreadsheet applications
http://www.bom.gov.au/fwo/IDN60903/IDN60903.95716.axf

JavaScript Object Notation format (JSON) in row-major order
http://www.bom.gov.au/fwo/IDN60903/IDN60903.95716.json

Data quality

Most of these data are generated automatically and are frequently updated. Quality checks on data are not normally performed. It is possible for incorrect values to appear. Refer to information at About Latest Weather Observations and please check the disclaimer before using these data.